Weather History for Perry, IA

Change the Weather History Date:

Saturday, November 5, 2011

  Actual Average Record
Temperature  
Mean Temperature 47 °F -  
Max Temperature 57 °F 50 °F 72 °F (1978)
Min Temperature 37 °F 29 °F 3 °F (1991)
Degree Days  
Heating Degree Days 18    
Moisture  
Dew Point 40 °F    
Average Humidity 77    
Maximum Humidity 93    
Minimum Humidity 59    
Precipitation  
Precipitation 0.00 in - - ()
Sea Level Pressure  
Sea Level Pressure 29.91 in    
Wind  
Wind Speed 13 mph (SE)    
Max Wind Speed 23 mph    
Max Gust Speed 29 mph    
Visibility 9 miles    
Events      
Averages and records for this station are not official NWS values.
T = Trace of Precipitation, MM = Missing Value Source: NWS Daily Summary

Daily Weather History Graph

Daily Weather History Graph

Search for Another Location

Airport:

Trip Planner

Search our weather history database for the weather conditions in past years. The results will help you decide how hot, cold, wet, or windy it might be!

Date:

Astronomy

Nov. 05, 2011 Rise Set
Actual Time 7:53 AM CDT 6:06 PM CDT
Civil Twilight 7:24 AM CDT 6:35 PM CDT
Nautical Twilight 6:51 AM CDT 7:08 PM CDT
Astronomical Twilight 6:18 AM CDT 7:41 PM CDT
Moon 3:28 PM CDT (11/5) 3:00 AM CDT (11/5)
Length of Visible Light 11h 11m
Length of Day
10h 12m
Waxing Gibbous, 78% of the Moon is Illuminated
Nov 5
Waxing Gibbous
Nov 10
Full
Nov 18
Last Quarter
Nov 25
New
Dec 2
First Quarter

Hourly Weather History & Observations

Time (CDT) Temp. Windchill Dew Point Humidity Pressure Visibility Wind Dir Wind Speed Gust Speed Precip Events Conditions
12:15 AM 39.2 °F 32.5 °F 32.0 °F 75% 30.06 in 10.0 mi SE 10.4 mph - N/A   Clear
12:35 AM 37.4 °F 30.3 °F 32.0 °F 81% 30.06 in 10.0 mi SE 10.4 mph - N/A   Clear
12:55 AM 37.4 °F 30.8 °F 32.0 °F 81% 30.06 in 10.0 mi SE 9.2 mph - N/A   Clear
1:15 AM 37.4 °F 30.8 °F 32.0 °F 81% 30.06 in 10.0 mi SE 9.2 mph - N/A   Clear
1:35 AM 39.2 °F 32.5 °F 33.8 °F 81% 30.05 in 10.0 mi SE 10.4 mph - N/A   Clear
1:55 AM 39.2 °F 32.5 °F 33.8 °F 81% 30.05 in 10.0 mi SE 10.4 mph - N/A   Clear
2:35 AM 41.0 °F 34.3 °F 35.6 °F 81% 30.04 in 10.0 mi SE 11.5 mph - N/A   Clear
2:55 AM 41.0 °F 34.3 °F 35.6 °F 81% 30.04 in 10.0 mi SE 11.5 mph - N/A   Clear
3:15 AM 41.0 °F 35.2 °F 35.6 °F 81% 30.03 in 10.0 mi SE 9.2 mph - N/A   Clear
3:35 AM 41.0 °F 34.7 °F 35.6 °F 81% 30.03 in 10.0 mi SE 10.4 mph - N/A   Clear
3:55 AM 39.2 °F 33.0 °F 35.6 °F 87% 30.02 in 10.0 mi SE 9.2 mph - N/A   Clear
4:15 AM 39.2 °F 33.0 °F 35.6 °F 87% 30.00 in 10.0 mi SE 9.2 mph - N/A   Clear
4:35 AM 41.0 °F 34.7 °F 37.4 °F 87% 29.99 in 10.0 mi SE 10.4 mph - N/A   Clear
4:55 AM 41.0 °F 35.2 °F 37.4 °F 87% 29.99 in 10.0 mi SE 9.2 mph - N/A   Clear
5:15 AM 41.0 °F 35.2 °F 37.4 °F 87% 29.99 in 10.0 mi SE 9.2 mph - N/A   Clear
5:35 AM 41.0 °F 34.7 °F 37.4 °F 87% 29.99 in 7.0 mi SE 10.4 mph 16.1 mph N/A   Clear
5:55 AM 41.0 °F 34.7 °F 37.4 °F 87% 29.99 in 7.0 mi SE 10.4 mph - N/A   Clear
6:35 AM 41.0 °F 34.7 °F 37.4 °F 87% 29.99 in 7.0 mi SE 10.4 mph - N/A   Clear
6:55 AM 41.0 °F 34.7 °F 37.4 °F 87% 29.99 in 7.0 mi SE 10.4 mph - N/A   Clear
6:59 AM 41.0 °F 34.7 °F 39.2 °F 93% 29.99 in 7.0 mi SE 10.4 mph - N/A   Clear
7:55 AM 41.0 °F 34.7 °F 37.4 °F 87% 29.98 in 5.0 mi SE 10.4 mph - N/A   Clear
8:15 AM 41.0 °F 33.9 °F 39.2 °F 93% 29.97 in 5.0 mi SE 12.7 mph - N/A   Clear
8:35 AM 42.8 °F 35.8 °F 41.0 °F 93% 29.97 in 7.0 mi SE 13.8 mph - N/A   Clear
8:55 AM 42.8 °F 35.8 °F 41.0 °F 93% 29.97 in 7.0 mi SE 13.8 mph - N/A   Clear
9:15 AM 44.6 °F 38.4 °F 41.0 °F 87% 29.97 in 7.0 mi SE 12.7 mph - N/A   Clear
9:35 AM 44.6 °F 37.2 °F 41.0 °F 87% 29.96 in 7.0 mi SE 17.3 mph - N/A   Clear
9:55 AM 44.6 °F 37.2 °F 41.0 °F 87% 29.96 in 7.0 mi SE 17.3 mph 21.9 mph N/A   Scattered Clouds
10:15 AM 46.4 °F 39.8 °F 42.8 °F 87% 29.95 in 7.0 mi SSE 16.1 mph 21.9 mph N/A   Mostly Cloudy
10:35 AM 48.2 °F - 42.8 °F 82% 29.94 in 7.0 mi SSE 17.3 mph 24.2 mph N/A   Scattered Clouds
10:55 AM 50.0 °F - 42.8 °F 76% 29.94 in 10.0 mi SSE 19.6 mph 24.2 mph N/A   Clear
11:15 AM 50.0 °F - 42.8 °F 76% 29.94 in 10.0 mi SSE 18.4 mph - N/A   Scattered Clouds
11:35 AM 51.8 °F - 42.8 °F 71% 29.94 in 10.0 mi SSE 18.4 mph 25.3 mph N/A   Scattered Clouds
11:55 AM 51.8 °F - 42.8 °F 71% 29.93 in 10.0 mi SSE 19.6 mph - N/A   Clear
12:15 PM 51.8 °F - 42.8 °F 71% 29.92 in 10.0 mi SSE 21.9 mph 25.3 mph N/A   Clear
12:55 PM 53.6 °F - 44.6 °F 72% 29.90 in 10.0 mi SSE 20.7 mph 25.3 mph N/A   Scattered Clouds
1:15 PM 55.4 °F - 42.8 °F 63% 29.89 in 10.0 mi SE 21.9 mph 26.5 mph N/A   Clear
1:35 PM 53.6 °F - 42.8 °F 67% 29.87 in 10.0 mi SSE 21.9 mph 28.8 mph N/A   Clear
1:55 PM 55.4 °F - 42.8 °F 63% 29.86 in 10.0 mi SE 23.0 mph - N/A   Clear
2:15 PM 55.4 °F - 42.8 °F 63% 29.86 in 10.0 mi SSE 21.9 mph 27.6 mph N/A   Clear
2:35 PM 55.4 °F - 42.8 °F 63% 29.85 in 10.0 mi SE 17.3 mph 28.8 mph N/A   Clear
2:55 PM 57.2 °F - 42.8 °F 59% 29.84 in 10.0 mi SSE 23.0 mph - N/A   Clear
3:15 PM 55.4 °F - 42.8 °F 63% 29.83 in 10.0 mi SE 19.6 mph 27.6 mph N/A   Clear
3:35 PM 55.4 °F - 42.8 °F 63% 29.82 in 10.0 mi SE 20.7 mph 25.3 mph N/A   Clear
3:55 PM 55.4 °F - 42.8 °F 63% 29.81 in 10.0 mi SE 20.7 mph 26.5 mph N/A   Clear
4:15 PM 55.4 °F - 42.8 °F 63% 29.81 in 10.0 mi SE 20.7 mph 26.5 mph N/A   Clear
4:35 PM 55.4 °F - 42.8 °F 63% 29.79 in 10.0 mi SE 18.4 mph 26.5 mph N/A   Clear
4:55 PM 55.4 °F - 42.8 °F 63% 29.80 in 10.0 mi SSE 18.4 mph 21.9 mph N/A   Clear
5:15 PM 55.4 °F - 42.8 °F 63% 29.79 in 10.0 mi SE 18.4 mph - N/A   Clear
5:35 PM 53.6 °F - 42.8 °F 67% 29.79 in 10.0 mi SE 17.3 mph - N/A   Clear
5:55 PM 53.6 °F - 42.8 °F 67% 29.79 in 10.0 mi SE 13.8 mph - N/A   Clear
6:15 PM 51.8 °F - 42.8 °F 71% 29.78 in 10.0 mi SE 16.1 mph - N/A   Clear
6:55 PM 51.8 °F - 42.8 °F 71% 29.77 in 10.0 mi SE 18.4 mph 24.2 mph N/A   Clear
7:15 PM 51.8 °F - 42.8 °F 71% 29.77 in 10.0 mi ESE 16.1 mph - N/A   Clear
7:35 PM 51.8 °F - 42.8 °F 71% 29.77 in 10.0 mi ESE 17.3 mph 24.2 mph N/A   Clear
7:55 PM 51.8 °F - 42.8 °F 71% 29.77 in 10.0 mi ESE 18.4 mph 24.2 mph N/A   Clear
8:15 PM 50.0 °F - 42.8 °F 76% 29.76 in 10.0 mi ESE 18.4 mph 23.0 mph N/A   Clear
8:35 PM 50.0 °F - 42.8 °F 76% 29.76 in 10.0 mi SE 16.1 mph - N/A   Clear
8:55 PM 48.2 °F - 42.8 °F 82% 29.75 in 10.0 mi SE 15.0 mph 21.9 mph N/A   Clear
9:15 PM 48.2 °F - 42.8 °F 82% 29.73 in 10.0 mi SE 17.3 mph - N/A   Clear
9:35 PM 50.0 °F - 42.8 °F 76% 29.72 in 10.0 mi SE 18.4 mph 26.5 mph N/A   Clear
9:55 PM 48.2 °F - 42.8 °F 82% 29.75 in 10.0 mi SE 18.4 mph - N/A   Clear
10:15 PM 48.2 °F - 42.8 °F 82% 29.76 in 10.0 mi SE 15.0 mph - N/A   Clear
10:35 PM 48.2 °F - 42.8 °F 82% 29.75 in 10.0 mi SE 17.3 mph - N/A   Clear
10:55 PM 48.2 °F - 42.8 °F 82% 29.75 in 10.0 mi SE 17.3 mph - N/A   Clear
11:15 PM 46.4 °F 39.8 °F 42.8 °F 87% 29.74 in 10.0 mi SE 16.1 mph - N/A   Clear
11:35 PM 46.4 °F 39.8 °F 42.8 °F 87% 29.74 in 10.0 mi SE 16.1 mph - N/A   Clear
11:55 PM 48.2 °F - 42.8 °F 82% 29.74 in 10.0 mi SSE 16.1 mph - N/A   Clear